createdAt,value
2023-03-10T00:01:27.748Z,10.17
2023-03-10T00:03:57.751Z,11.07
2023-03-10T00:06:28.269Z,12.53
2023-03-10T00:08:57.732Z,9.37
2023-03-10T00:11:27.480Z,9.13
2023-03-10T00:14:00.769Z,9.70
2023-03-10T00:16:31.060Z,10.67
2023-03-10T00:18:59.751Z,10.87
2023-03-10T00:21:31.462Z,8.60
2023-03-10T00:24:01.531Z,10.20
2023-03-10T00:26:31.615Z,10.63
2023-03-10T00:29:09.585Z,11.67
2023-03-10T00:31:37.771Z,11.87
2023-03-10T00:34:06.778Z,11.53
2023-03-10T00:36:35.099Z,8.80
2023-03-10T00:39:04.927Z,11.00
2023-03-10T00:41:39.731Z,11.17
2023-03-10T00:44:10.241Z,10.83
2023-03-10T00:46:40.812Z,8.97
2023-03-10T00:49:17.048Z,8.37
2023-03-10T00:51:46.756Z,8.43
2023-03-10T00:54:15.745Z,11.17
2023-03-10T00:56:45.258Z,11.30
2023-03-10T00:59:13.933Z,10.77
2023-03-10T01:01:43.236Z,10.10
2023-03-10T01:04:15.874Z,11.57
2023-03-10T01:06:47.577Z,10.67
2023-03-10T01:09:17.962Z,11.17
2023-03-10T01:11:49.249Z,9.40
2023-03-10T01:14:19.496Z,10.10
2023-03-10T01:16:47.697Z,9.40
2023-03-10T01:19:15.891Z,9.40
2023-03-10T01:21:45.383Z,9.47
2023-03-10T01:24:16.381Z,9.07
2023-03-10T01:26:45.079Z,9.00
2023-03-10T01:29:17.336Z,9.53
2023-03-10T01:31:45.656Z,10.07
2023-03-10T01:34:13.832Z,12.67
2023-03-10T01:36:43.768Z,9.87
2023-03-10T01:39:12.592Z,11.63
2023-03-10T01:41:45.369Z,10.07
2023-03-10T01:44:17.916Z,9.70
2023-03-10T01:46:53.044Z,10.97
2023-03-10T01:49:36.310Z,8.60
2023-03-10T01:52:09.947Z,10.80
2023-03-10T01:54:50.056Z,8.53
2023-03-10T01:57:22.980Z,9.23
2023-03-10T01:59:55.752Z,9.73
2023-03-10T02:02:26.856Z,9.40
2023-03-10T02:04:56.543Z,10.00
2023-03-10T02:07:30.008Z,13.00
2023-03-10T02:09:58.357Z,11.50
2023-03-10T02:12:26.522Z,11.07
2023-03-10T02:15:02.158Z,13.10
2023-03-10T02:17:30.788Z,10.80
2023-03-10T02:20:09.782Z,12.53
2023-03-10T02:22:39.163Z,12.87
2023-03-10T02:25:20.257Z,13.27
2023-03-10T02:27:50.736Z,11.80
2023-03-10T02:30:23.682Z,13.67
2023-03-10T02:32:55.833Z,13.67
2023-03-10T02:35:25.284Z,12.63
2023-03-10T02:37:59.788Z,14.03
2023-03-10T02:40:35.430Z,14.70
2023-03-10T02:43:18.210Z,14.57
2023-03-10T02:45:51.666Z,16.13
2023-03-10T02:48:28.683Z,15.07
2023-03-10T02:50:58.773Z,14.73
2023-03-10T02:53:29.813Z,13.87
2023-03-10T02:55:59.859Z,15.23
2023-03-10T02:58:33.772Z,15.77
2023-03-10T03:01:05.060Z,14.03
2023-03-10T03:03:36.828Z,14.57
2023-03-10T03:06:06.784Z,14.07
2023-03-10T03:08:35.803Z,14.70
2023-03-10T03:11:07.091Z,14.23
2023-03-10T03:13:37.835Z,16.50
2023-03-10T03:16:08.332Z,12.73
2023-03-10T03:18:37.558Z,14.67
2023-03-10T03:21:11.565Z,14.63
2023-03-10T03:23:40.909Z,16.83
2023-03-10T03:26:20.941Z,14.43
2023-03-10T03:28:52.313Z,15.53
2023-03-10T03:31:28.185Z,13.53
2023-03-10T03:37:41.728Z,16.60
2023-03-10T03:40:13.414Z,15.50
2023-03-10T03:42:49.827Z,14.60
2023-03-10T03:45:21.827Z,14.73
2023-03-10T03:47:52.819Z,15.20
2023-03-10T03:50:22.636Z,15.80
2023-03-10T03:52:52.804Z,13.70
2023-03-10T03:55:23.976Z,13.43
2023-03-10T03:57:54.778Z,13.13
2023-03-10T04:00:26.301Z,14.40
2023-03-10T04:03:03.987Z,13.63
2023-03-10T04:05:33.823Z,12.53
2023-03-10T04:08:02.782Z,14.57
2023-03-10T04:10:31.915Z,13.63
2023-03-10T04:13:04.508Z,15.60
2023-03-10T04:15:36.905Z,15.00
2023-03-10T04:18:05.393Z,15.33
2023-03-10T04:20:34.671Z,16.43
2023-03-10T04:23:02.916Z,16.57
2023-03-10T04:25:35.811Z,15.10
2023-03-10T04:28:05.802Z,14.50
2023-03-10T04:30:35.431Z,14.67
2023-03-10T04:33:05.843Z,16.77
2023-03-10T04:35:36.026Z,13.80
2023-03-10T04:38:04.853Z,15.80
2023-03-10T04:40:33.819Z,14.90
2023-03-10T04:43:03.828Z,14.03
2023-03-10T04:45:33.824Z,14.80
2023-03-10T04:48:03.534Z,16.40
2023-03-10T04:50:33.654Z,16.53
2023-03-10T04:53:02.410Z,16.20
2023-03-10T04:55:32.372Z,18.07
2023-03-10T04:58:02.704Z,14.20
2023-03-10T05:00:31.004Z,16.40
2023-03-10T05:03:00.142Z,15.47
2023-03-10T05:05:29.827Z,17.77
2023-03-10T05:07:57.936Z,15.60
2023-03-10T05:10:26.468Z,15.83
2023-03-10T05:12:56.827Z,15.37
2023-03-10T05:15:25.582Z,14.77
2023-03-10T05:17:54.845Z,14.43
2023-03-10T05:20:23.199Z,18.17
2023-03-10T05:22:53.420Z,16.63
2023-03-10T05:25:24.813Z,16.43
2023-03-10T05:27:53.493Z,19.03
2023-03-10T05:30:23.506Z,17.73
2023-03-10T05:32:55.617Z,19.37
2023-03-10T05:35:23.943Z,17.63
2023-03-10T05:37:54.167Z,17.43
2023-03-10T05:40:23.785Z,16.70
2023-03-10T05:42:52.839Z,16.30
2023-03-10T05:45:23.088Z,20.63
2023-03-10T05:47:53.089Z,18.27
2023-03-10T05:50:21.402Z,21.50
2023-03-10T05:52:49.630Z,18.90
2023-03-10T05:55:21.446Z,23.83
2023-03-10T05:57:49.978Z,21.80
2023-03-10T06:00:19.029Z,20.70
2023-03-10T06:02:58.862Z,20.87
2023-03-10T06:05:28.996Z,20.50
2023-03-10T06:07:57.130Z,19.27
2023-03-10T06:10:27.866Z,20.97
2023-03-10T06:12:56.459Z,20.23
2023-03-10T06:15:24.908Z,20.33
2023-03-10T06:17:53.071Z,20.77
2023-03-10T06:20:24.531Z,22.90
2023-03-10T06:22:53.346Z,23.00
2023-03-10T06:25:22.100Z,23.20
2023-03-10T06:27:51.552Z,24.53
2023-03-10T06:30:21.016Z,25.27
2023-03-10T06:32:53.033Z,25.57
2023-03-10T06:35:21.506Z,26.37
2023-03-10T06:37:49.683Z,28.17
2023-03-10T06:40:17.930Z,30.20
2023-03-10T06:42:46.222Z,29.27
2023-03-10T06:45:20.756Z,33.23
2023-03-10T06:47:49.912Z,32.17
2023-03-10T06:50:20.698Z,33.13
2023-03-10T06:52:49.028Z,32.67
2023-03-10T06:55:17.567Z,31.67
2023-03-10T06:57:48.496Z,31.03
2023-03-10T07:00:19.510Z,32.17
2023-03-10T07:02:47.731Z,33.43
2023-03-10T07:05:16.132Z,32.20
2023-03-10T07:07:44.425Z,33.57
2023-03-10T07:10:13.376Z,30.03
2023-03-10T07:12:43.382Z,31.23
2023-03-10T07:15:12.658Z,34.93
2023-03-10T07:17:42.922Z,36.97
2023-03-10T07:20:12.805Z,42.43
2023-03-10T07:22:45.650Z,38.27
2023-03-10T07:25:13.959Z,34.27
2023-03-10T07:27:42.406Z,34.43
2023-03-10T07:30:11.936Z,31.10
2023-03-10T07:32:45.278Z,32.00
2023-03-10T07:35:13.797Z,32.87
2023-03-10T07:37:42.346Z,33.33
2023-03-10T07:40:12.115Z,35.13
2023-03-10T07:42:40.373Z,34.40
2023-03-10T07:45:13.639Z,33.33
2023-03-10T07:47:43.137Z,37.07
2023-03-10T07:50:12.895Z,33.47
2023-03-10T07:52:41.038Z,31.60
2023-03-10T07:55:09.982Z,35.67
2023-03-10T07:57:42.028Z,38.03
2023-03-10T08:00:11.461Z,31.60
2023-03-10T08:02:43.657Z,33.93
2023-03-10T08:05:14.903Z,35.13
2023-03-10T08:07:44.676Z,33.10
2023-03-10T08:10:14.013Z,35.13
2023-03-10T08:12:42.146Z,34.70
2023-03-10T08:15:13.347Z,34.00
2023-03-10T08:17:45.893Z,36.07
2023-03-10T08:20:14.439Z,40.07
2023-03-10T08:22:42.612Z,41.37
2023-03-10T08:25:12.721Z,36.73
2023-03-10T08:27:41.583Z,38.30
2023-03-10T08:30:13.307Z,33.27
2023-03-10T08:32:41.660Z,37.80
2023-03-10T08:35:12.111Z,36.03
2023-03-10T08:37:43.144Z,37.17
2023-03-10T08:40:14.687Z,36.90
2023-03-10T08:42:45.516Z,37.63
2023-03-10T08:45:15.227Z,36.83
2023-03-10T08:47:43.395Z,35.60
2023-03-10T08:50:14.354Z,36.37
2023-03-10T08:52:42.671Z,39.47
2023-03-10T08:55:12.791Z,38.00
2023-03-10T08:57:42.082Z,36.33
2023-03-10T09:00:12.574Z,40.83
2023-03-10T09:02:43.444Z,37.77
2023-03-10T09:05:13.321Z,38.33
2023-03-10T09:07:41.658Z,40.07
2023-03-10T09:10:10.504Z,37.33
2023-03-10T09:12:39.426Z,46.20
2023-03-10T09:15:08.682Z,39.53
2023-03-10T09:17:39.394Z,38.60
2023-03-10T09:20:09.963Z,39.17
2023-03-10T09:22:39.607Z,37.63
2023-03-10T09:25:08.692Z,39.37
2023-03-10T09:27:40.997Z,36.67
2023-03-10T09:30:10.303Z,37.87
2023-03-10T09:32:38.496Z,39.03
2023-03-10T09:35:07.778Z,36.40
2023-03-10T09:37:36.088Z,38.33
2023-03-10T09:40:14.206Z,38.00
2023-03-10T09:42:44.153Z,39.07
2023-03-10T09:45:24.827Z,34.13
2023-03-10T09:48:16.459Z,38.90
2023-03-10T09:50:46.726Z,36.17
2023-03-10T09:53:41.935Z,38.33
2023-03-10T09:56:18.286Z,39.30
2023-03-10T09:58:49.917Z,41.17
2023-03-10T10:01:21.384Z,37.47
2023-03-10T10:03:53.618Z,35.70
2023-03-10T10:06:28.153Z,40.60
2023-03-10T10:09:05.077Z,41.33
2023-03-10T10:11:36.540Z,38.93
2023-03-10T10:14:38.441Z,36.60
2023-03-10T10:17:17.740Z,34.17
2023-03-10T10:19:48.408Z,44.67
2023-03-10T10:22:26.030Z,39.30
2023-03-10T10:25:04.314Z,41.47
2023-03-10T10:27:34.581Z,36.63
2023-03-10T10:30:27.611Z,35.67
2023-03-10T10:32:59.041Z,44.53
2023-03-10T10:35:30.168Z,36.77
2023-03-10T10:38:03.349Z,36.53
2023-03-10T10:40:34.431Z,37.70
2023-03-10T10:43:07.856Z,33.30
2023-03-10T10:45:37.428Z,34.90
2023-03-10T10:48:07.451Z,33.43
2023-03-10T10:50:37.955Z,33.53
2023-03-10T10:53:24.246Z,34.80
2023-03-10T10:56:02.969Z,31.20
2023-03-10T10:58:35.003Z,32.53
2023-03-10T11:01:06.396Z,34.37
2023-03-10T11:03:36.948Z,36.00
2023-03-10T11:06:15.910Z,36.20
2023-03-10T11:08:50.794Z,32.93
2023-03-10T11:11:32.480Z,32.53
2023-03-10T11:14:24.503Z,31.37
2023-03-10T11:17:02.950Z,30.10
2023-03-10T11:19:36.493Z,33.53
2023-03-10T11:22:18.989Z,28.23
2023-03-10T11:24:53.979Z,28.27
2023-03-10T11:27:31.678Z,27.63
2023-03-10T11:30:10.431Z,27.60
2023-03-10T11:32:48.916Z,30.20
2023-03-10T11:35:29.371Z,27.60
2023-03-10T11:38:06.328Z,23.47
2023-03-10T11:40:44.017Z,22.27
2023-03-10T11:43:21.933Z,26.07
2023-03-10T11:45:54.445Z,27.13
2023-03-10T11:48:51.159Z,25.40
2023-03-10T11:51:27.493Z,24.70
2023-03-10T11:53:58.982Z,27.10
2023-03-10T11:56:28.985Z,22.33
2023-03-10T11:59:01.992Z,20.60
2023-03-10T12:01:35.976Z,20.57
2023-03-10T12:04:13.627Z,21.10
2023-03-10T12:06:48.405Z,18.17
2023-03-10T12:09:27.422Z,20.10
2023-03-10T12:11:58.105Z,20.73
2023-03-10T12:14:27.976Z,19.47
2023-03-10T12:16:58.057Z,18.10
2023-03-10T12:19:29.500Z,18.93
2023-03-10T12:22:25.846Z,16.10
2023-03-10T12:24:54.246Z,15.50
2023-03-10T12:27:23.820Z,17.17
2023-03-10T12:29:52.011Z,15.83
2023-03-10T12:32:48.191Z,15.60
2023-03-10T12:35:36.663Z,13.73
2023-03-10T12:38:33.359Z,16.20
2023-03-10T12:41:02.194Z,15.60
2023-03-10T12:44:04.140Z,17.83
2023-03-10T12:46:46.955Z,14.73
2023-03-10T12:49:29.190Z,16.40
2023-03-10T12:52:17.079Z,15.13
2023-03-10T12:54:57.707Z,14.57
2023-03-10T12:57:32.176Z,13.03
2023-03-10T13:00:08.008Z,18.17
2023-03-10T13:02:46.031Z,14.23
2023-03-10T13:05:24.330Z,12.83
2023-03-10T13:07:56.069Z,13.10
2023-03-10T13:10:26.450Z,13.73
2023-03-10T13:12:59.826Z,12.07
2023-03-10T13:15:31.302Z,12.37
2023-03-10T13:18:18.405Z,8.23
2023-03-10T13:20:49.041Z,8.10
2023-03-10T13:23:24.071Z,7.23
2023-03-10T13:25:56.487Z,9.70
2023-03-10T13:28:25.525Z,5.30
2023-03-10T13:31:07.261Z,6.43
2023-03-10T13:33:50.260Z,6.80
2023-03-10T13:36:35.063Z,7.60
2023-03-10T13:39:05.471Z,8.07
2023-03-10T13:41:38.032Z,4.60
2023-03-10T13:44:06.222Z,6.90
2023-03-10T13:46:35.320Z,7.00
2023-03-10T13:49:07.102Z,7.37
2023-03-10T13:51:38.067Z,6.27
2023-03-10T13:54:24.143Z,7.57
2023-03-10T13:56:54.955Z,7.03
2023-03-10T13:59:26.044Z,5.57
2023-03-10T14:01:59.944Z,6.53
2023-03-10T14:04:44.360Z,5.77
2023-03-10T14:07:18.396Z,5.40
2023-03-10T14:09:48.244Z,4.87
2023-03-10T14:12:35.382Z,7.43
2023-03-10T14:15:13.039Z,4.40
2023-03-10T14:17:42.063Z,5.87
2023-03-10T14:20:11.864Z,6.73
2023-03-10T14:22:43.465Z,6.27
2023-03-10T14:25:15.560Z,6.03
2023-03-10T14:27:49.482Z,6.90
2023-03-10T14:30:24.129Z,8.87
2023-03-10T14:32:52.837Z,8.77
2023-03-10T14:35:25.770Z,5.97
2023-03-10T14:37:57.092Z,6.47
2023-03-10T14:40:26.648Z,10.27
2023-03-10T14:42:58.846Z,7.33
2023-03-10T14:45:30.549Z,7.53
2023-03-10T14:48:01.383Z,5.70
2023-03-10T14:50:33.243Z,6.90
2023-03-10T14:53:02.795Z,6.83
2023-03-10T14:55:32.059Z,10.10
2023-03-10T14:58:04.080Z,8.20
2023-03-10T15:00:32.818Z,7.87
2023-03-10T15:03:01.777Z,7.13
2023-03-10T15:05:46.812Z,6.00
2023-03-10T15:08:19.016Z,8.17
2023-03-10T15:10:50.735Z,7.17
2023-03-10T15:13:21.080Z,7.60
2023-03-10T15:15:49.792Z,7.67
2023-03-10T15:18:21.089Z,6.83
2023-03-10T15:20:52.413Z,7.93
2023-03-10T15:23:22.626Z,9.37
2023-03-10T15:25:51.969Z,8.73
2023-03-10T15:28:20.226Z,10.37
2023-03-10T15:30:48.599Z,7.77
2023-03-10T15:33:21.080Z,8.00
2023-03-10T15:35:50.022Z,8.00
2023-03-10T15:38:18.361Z,7.40
2023-03-10T15:40:49.112Z,7.67
2023-03-10T15:43:17.316Z,7.53
2023-03-10T15:45:53.913Z,9.30
2023-03-10T15:48:22.089Z,6.80
2023-03-10T15:50:51.122Z,6.70
2023-03-10T15:53:19.924Z,7.93
2023-03-10T15:55:52.301Z,10.47
2023-03-10T15:58:22.014Z,6.50
2023-03-10T16:00:51.260Z,12.20
2023-03-10T16:03:19.387Z,7.67
2023-03-10T16:05:49.311Z,7.93
2023-03-10T16:08:19.129Z,7.63
2023-03-10T16:10:56.151Z,8.13
2023-03-10T16:13:25.065Z,11.50
2023-03-10T16:15:53.889Z,7.57
2023-03-10T16:18:25.050Z,10.77
2023-03-10T16:21:00.125Z,8.43
2023-03-10T16:23:29.318Z,10.13
2023-03-10T16:26:07.045Z,8.07
2023-03-10T16:28:35.897Z,8.87
2023-03-10T16:31:05.235Z,10.77
2023-03-10T16:33:34.849Z,9.87
2023-03-10T16:36:04.880Z,8.93
2023-03-10T16:38:37.010Z,9.73
2023-03-10T16:41:07.776Z,10.23
2023-03-10T16:43:35.899Z,9.70
2023-03-10T16:46:10.440Z,11.60
2023-03-10T16:48:42.077Z,8.30
2023-03-10T16:51:23.637Z,10.07
2023-03-10T16:53:52.755Z,9.60
2023-03-10T16:56:25.135Z,9.57
2023-03-10T16:58:55.107Z,8.40
2023-03-10T17:01:24.964Z,8.77
2023-03-10T17:03:55.336Z,9.53
2023-03-10T17:06:26.185Z,11.13
2023-03-10T17:08:55.343Z,10.67
2023-03-10T17:11:28.142Z,12.13
2023-03-10T17:13:58.458Z,8.30
2023-03-10T17:16:30.153Z,9.50
2023-03-10T17:19:00.326Z,8.17
2023-03-10T17:21:32.752Z,12.80
2023-03-10T17:24:05.047Z,10.53
2023-03-10T17:26:34.643Z,8.80
2023-03-10T17:29:02.783Z,9.47
2023-03-10T17:31:32.269Z,8.93
2023-03-10T17:34:05.384Z,9.47
2023-03-10T17:36:34.204Z,11.50
2023-03-10T17:39:07.161Z,6.63
2023-03-10T17:41:37.751Z,8.23
2023-03-10T17:44:05.923Z,8.50
2023-03-10T17:46:35.967Z,11.33
2023-03-10T17:49:06.274Z,8.57
2023-03-10T17:51:34.407Z,9.60
2023-03-10T17:54:03.145Z,8.40
2023-03-10T17:56:31.403Z,7.47
2023-03-10T17:59:01.007Z,9.60
2023-03-10T18:01:33.900Z,9.53
2023-03-10T18:04:02.052Z,11.83
2023-03-10T18:06:33.033Z,12.50
2023-03-10T18:09:04.625Z,11.87
2023-03-10T18:11:33.950Z,13.67
2023-03-10T18:14:04.217Z,10.07
2023-03-10T18:16:34.311Z,12.53
2023-03-10T18:19:02.912Z,11.40
2023-03-10T18:21:31.563Z,10.23
2023-03-10T18:23:59.842Z,13.93
2023-03-10T18:26:30.718Z,17.57
2023-03-10T18:28:59.344Z,9.63
2023-03-10T18:31:30.579Z,11.13
2023-03-10T18:33:59.190Z,14.43
2023-03-10T18:36:28.242Z,9.50
2023-03-10T18:38:58.594Z,18.73
2023-03-10T18:41:29.477Z,20.20
2023-03-10T18:43:57.911Z,17.10
2023-03-10T18:46:26.174Z,14.93
2023-03-10T18:48:59.404Z,14.67
2023-03-10T18:51:28.953Z,18.47
2023-03-10T18:53:57.665Z,20.90
2023-03-10T18:56:28.963Z,15.73
2023-03-10T18:58:58.362Z,16.83
2023-03-10T19:01:29.416Z,18.00
2023-03-10T19:03:59.167Z,13.70
2023-03-10T19:06:36.248Z,18.77
2023-03-10T19:09:09.175Z,18.00
2023-03-10T19:11:38.503Z,19.50
2023-03-10T19:14:13.806Z,21.40
2023-03-10T19:16:42.807Z,18.47
2023-03-10T19:19:13.408Z,19.50
2023-03-10T19:21:41.562Z,21.03
2023-03-10T19:24:09.970Z,23.60
2023-03-10T19:26:40.242Z,16.40
2023-03-10T19:29:08.398Z,21.00
2023-03-10T19:31:37.258Z,19.20
2023-03-10T19:34:05.540Z,20.87
2023-03-10T19:36:36.178Z,18.97
2023-03-10T19:39:04.541Z,19.00
2023-03-10T19:41:32.800Z,20.07
2023-03-10T19:44:01.278Z,18.97
2023-03-10T19:46:29.589Z,28.33
2023-03-10T19:48:57.862Z,24.33
2023-03-10T19:51:28.098Z,31.17
2023-03-10T19:53:58.603Z,29.97
2023-03-10T19:56:27.255Z,21.07
2023-03-10T19:58:55.420Z,18.50
2023-03-10T20:01:26.239Z,16.73
2023-03-10T20:03:56.644Z,17.93
2023-03-10T20:06:25.324Z,19.87
2023-03-10T20:08:54.553Z,16.57
2023-03-10T20:11:26.036Z,18.70
2023-03-10T20:13:54.949Z,19.50
2023-03-10T20:16:24.285Z,24.23
2023-03-10T20:18:52.694Z,21.63
2023-03-10T20:21:20.853Z,26.53
2023-03-10T20:23:54.248Z,20.30
2023-03-10T20:26:25.201Z,19.07
2023-03-10T20:28:53.720Z,19.90
2023-03-10T20:31:24.022Z,21.47
2023-03-10T20:33:52.961Z,25.37
2023-03-10T20:36:21.303Z,24.17
2023-03-10T20:38:49.520Z,21.67
2023-03-10T20:41:22.225Z,26.27
2023-03-10T20:43:53.445Z,24.20
2023-03-10T20:46:22.926Z,28.50
2023-03-10T20:48:51.640Z,25.57
2023-03-10T20:51:19.912Z,29.27
2023-03-10T20:53:48.328Z,26.43
2023-03-10T20:56:16.718Z,30.57
2023-03-10T20:58:45.021Z,24.93
2023-03-10T21:01:19.099Z,26.17
2023-03-10T21:03:47.602Z,24.07
2023-03-10T21:06:16.152Z,25.27
2023-03-10T21:08:45.285Z,27.60
2023-03-10T21:11:14.258Z,28.77
2023-03-10T21:13:45.221Z,33.93
2023-03-10T21:16:13.432Z,28.93
2023-03-10T21:18:43.033Z,25.87
2023-03-10T21:21:13.643Z,25.07
2023-03-10T21:23:45.463Z,25.73
2023-03-10T21:26:15.072Z,25.67
2023-03-10T21:28:43.903Z,27.30
2023-03-10T21:31:12.527Z,29.87
2023-03-10T21:33:42.817Z,35.00
2023-03-10T21:36:14.755Z,35.27
2023-03-10T21:38:43.348Z,36.57
2023-03-10T21:41:13.354Z,38.27
2023-03-10T21:43:41.532Z,40.33
2023-03-10T21:46:09.975Z,39.23
2023-03-10T21:48:41.556Z,40.30
2023-03-10T21:51:14.252Z,42.80
2023-03-10T21:53:42.749Z,38.93
2023-03-10T21:56:11.037Z,43.83
2023-03-10T21:58:43.251Z,43.53
2023-03-10T22:01:14.813Z,42.33
2023-03-10T22:03:44.454Z,46.87
2023-03-10T22:06:14.074Z,42.63
2023-03-10T22:08:45.750Z,42.27
2023-03-10T22:11:15.878Z,44.77
2023-03-10T22:13:51.889Z,43.10
2023-03-10T22:16:20.894Z,39.77
2023-03-10T22:18:50.260Z,39.73
2023-03-10T22:21:20.741Z,41.67
2023-03-10T22:23:54.106Z,39.00
2023-03-10T22:26:23.946Z,36.13
2023-03-10T22:28:52.891Z,38.63
2023-03-10T22:31:27.955Z,39.20
2023-03-10T22:33:57.091Z,34.47
2023-03-10T22:36:27.907Z,32.90
2023-03-10T22:38:56.855Z,33.10
2023-03-10T22:41:26.250Z,33.10
2023-03-10T22:43:58.490Z,36.53
2023-03-10T22:46:28.620Z,33.33
2023-03-10T22:48:57.589Z,33.50
2023-03-10T22:51:28.057Z,35.73
2023-03-10T22:53:59.180Z,35.57
2023-03-10T22:56:28.220Z,37.23
2023-03-10T22:58:58.023Z,34.63
2023-03-10T23:01:26.996Z,32.60
2023-03-10T23:03:56.154Z,33.33
2023-03-10T23:06:29.258Z,33.50
2023-03-10T23:08:59.064Z,38.17
2023-03-10T23:11:28.577Z,34.43
2023-03-10T23:13:59.527Z,32.33
2023-03-10T23:16:28.525Z,32.20
2023-03-10T23:18:58.617Z,29.43
2023-03-10T23:21:29.289Z,30.30
2023-03-10T23:23:58.658Z,26.13
2023-03-10T23:26:28.552Z,24.97
2023-03-10T23:28:58.149Z,28.53
2023-03-10T23:31:27.707Z,23.40
2023-03-10T23:33:56.591Z,22.57
2023-03-10T23:36:26.141Z,23.20
2023-03-10T23:38:57.619Z,22.83
2023-03-10T23:41:27.010Z,23.10
2023-03-10T23:43:56.385Z,23.30
2023-03-10T23:46:25.897Z,22.93
2023-03-10T23:48:54.895Z,21.73
2023-03-10T23:51:23.712Z,23.70
2023-03-10T23:53:52.700Z,21.90
2023-03-10T23:56:23.025Z,21.20
2023-03-10T23:58:53.174Z,21.97
